createdAt,value
2022-12-04T00:01:37.802Z,88.11
2022-12-04T00:04:29.702Z,88.15
2022-12-04T00:07:30.854Z,88.22
2022-12-04T00:10:25.760Z,88.16
2022-12-04T00:13:19.421Z,88.11
2022-12-04T00:16:14.707Z,88.13
2022-12-04T00:19:08.236Z,88.04
2022-12-04T00:22:00.245Z,87.70
2022-12-04T00:24:52.565Z,87.33
2022-12-04T00:27:45.465Z,86.95
2022-12-04T00:30:46.371Z,86.65
2022-12-04T00:33:40.189Z,86.31
2022-12-04T00:36:33.886Z,85.74
2022-12-04T00:39:26.016Z,85.45
2022-12-04T00:42:24.906Z,85.18
2022-12-04T00:45:17.086Z,85.03
2022-12-04T00:48:09.847Z,84.87
2022-12-04T00:54:35.544Z,84.18
2022-12-04T00:57:28.833Z,83.65
2022-12-04T01:00:22.214Z,83.36
2022-12-04T01:03:17.041Z,83.20
2022-12-04T01:10:20.993Z,83.22
2022-12-04T01:13:13.213Z,83.29
2022-12-04T01:16:08.050Z,83.33
2022-12-04T01:24:00.195Z,83.42
2022-12-04T01:26:52.363Z,83.28
2022-12-04T01:29:44.691Z,83.25
2022-12-04T01:32:37.032Z,83.10
2022-12-04T01:40:22.850Z,82.95
2022-12-04T01:43:20.678Z,82.98
2022-12-04T01:46:13.909Z,82.97
2022-12-04T01:50:28.123Z,82.99
2022-12-04T01:53:21.982Z,82.97
2022-12-04T01:57:09.478Z,82.84
2022-12-04T02:04:13.831Z,82.75
2022-12-04T02:07:06.483Z,82.75
2022-12-04T02:10:59.427Z,82.61
2022-12-04T02:18:18.353Z,82.24
2022-12-04T02:30:18.562Z,81.67
2022-12-04T02:34:14.543Z,81.56
2022-12-04T02:42:16.148Z,81.39
2022-12-04T02:45:10.292Z,81.27
2022-12-04T02:51:56.665Z,80.91
2022-12-04T02:59:51.818Z,80.91
2022-12-04T03:02:50.474Z,80.95
2022-12-04T03:14:16.972Z,80.52
2022-12-04T03:17:16.678Z,80.28
2022-12-04T03:20:16.266Z,80.18
2022-12-04T03:28:02.518Z,79.57
2022-12-04T03:35:11.599Z,79.08
2022-12-04T03:52:22.534Z,79.62
2022-12-04T03:55:21.413Z,79.79
2022-12-04T03:58:20.709Z,80.08
2022-12-04T04:01:15.545Z,80.35
2022-12-04T04:04:12.901Z,80.36
2022-12-04T04:16:07.092Z,80.54
2022-12-04T04:23:36.697Z,80.24
2022-12-04T04:45:24.157Z,80.12
2022-12-04T04:53:07.296Z,79.38
2022-12-04T04:56:00.553Z,79.07
2022-12-04T04:59:26.256Z,78.94
2022-12-04T05:02:18.397Z,78.57
2022-12-04T05:06:34.186Z,78.08
2022-12-04T05:09:26.478Z,77.58
2022-12-04T05:17:09.228Z,77.30
2022-12-04T05:25:36.577Z,78.26
2022-12-04T05:38:25.895Z,79.16
2022-12-04T05:41:18.123Z,79.77
2022-12-04T05:44:12.952Z,80.39
2022-12-04T05:47:05.279Z,80.88
2022-12-04T05:51:14.553Z,81.23
2022-12-04T05:54:06.904Z,81.11
2022-12-04T06:03:04.269Z,80.97
2022-12-04T06:05:56.518Z,80.82
2022-12-04T06:13:41.135Z,80.65
2022-12-04T06:21:28.273Z,80.78
2022-12-04T06:24:23.156Z,81.00
2022-12-04T06:28:01.265Z,81.23
2022-12-04T06:30:53.621Z,81.47
2022-12-04T06:33:48.049Z,81.66
2022-12-04T06:36:40.358Z,81.75
2022-12-04T06:39:34.982Z,81.68
2022-12-04T06:42:27.913Z,81.69
2022-12-04T06:45:20.588Z,81.46
2022-12-04T06:48:12.821Z,81.12
2022-12-04T06:51:07.460Z,80.80
2022-12-04T06:54:26.943Z,80.48
2022-12-04T06:57:39.468Z,80.30
2022-12-04T07:01:37.175Z,80.35
2022-12-04T07:04:29.064Z,80.47
2022-12-04T07:07:21.188Z,80.60
2022-12-04T07:10:14.130Z,80.71
2022-12-04T07:13:07.133Z,80.87
2022-12-04T07:16:00.963Z,81.25
2022-12-04T07:19:14.245Z,82.20
2022-12-04T07:22:06.609Z,82.77
2022-12-04T07:24:58.727Z,83.17
2022-12-04T07:27:50.935Z,83.52
2022-12-04T07:30:43.413Z,83.69
2022-12-04T07:33:35.896Z,83.77
2022-12-04T07:36:29.214Z,83.86
2022-12-04T07:39:21.128Z,83.89
2022-12-04T07:42:13.290Z,83.60
2022-12-04T07:45:06.334Z,83.37
2022-12-04T07:48:00.098Z,83.18
2022-12-04T07:50:52.305Z,83.00
2022-12-04T07:53:45.197Z,82.97
2022-12-04T07:56:38.111Z,83.05
2022-12-04T07:59:30.198Z,83.34
2022-12-04T08:02:25.138Z,83.75
2022-12-04T08:05:17.738Z,84.24
2022-12-04T08:08:14.036Z,84.98
2022-12-04T08:11:09.262Z,85.68
2022-12-04T08:19:57.028Z,86.73
2022-12-04T08:22:48.531Z,87.10
2022-12-04T08:25:42.782Z,87.23
2022-12-04T08:43:25.249Z,88.62
2022-12-04T08:46:30.413Z,88.78
2022-12-04T08:49:22.717Z,88.71
2022-12-04T08:52:49.292Z,88.69
2022-12-04T08:55:41.561Z,88.83
2022-12-04T08:59:08.514Z,89.19
2022-12-04T09:02:00.712Z,89.60
2022-12-04T09:04:58.177Z,90.06
2022-12-04T09:07:50.336Z,90.87
2022-12-04T09:10:47.295Z,91.23
2022-12-04T09:13:40.657Z,91.24
2022-12-04T09:16:36.991Z,90.96
2022-12-04T09:19:29.300Z,90.82
2022-12-04T09:22:40.485Z,90.88
2022-12-04T09:25:40.488Z,90.95
2022-12-04T09:28:32.719Z,90.95
2022-12-04T09:32:26.632Z,90.99
2022-12-04T09:35:18.958Z,91.12
2022-12-04T09:38:37.480Z,91.15
2022-12-04T11:55:33.081Z,89.97
2022-12-04T11:59:06.267Z,90.07
2022-12-04T12:02:10.821Z,90.19
2022-12-04T12:05:19.834Z,90.15
2022-12-04T12:08:21.301Z,90.01
2022-12-04T12:11:19.809Z,90.07
2022-12-04T12:14:21.804Z,90.32
2022-12-04T12:17:24.626Z,90.43
2022-12-04T12:20:24.424Z,90.46
2022-12-04T12:23:32.857Z,90.49
2022-12-04T12:26:35.031Z,90.38
2022-12-04T12:29:44.626Z,90.48
2022-12-04T12:36:48.362Z,91.13
2022-12-04T14:18:08.784Z,90.51
2022-12-04T14:22:42.372Z,90.70
2022-12-04T14:35:23.816Z,90.07
2022-12-04T14:54:24.821Z,91.02
2022-12-04T15:47:19.537Z,93.63
2022-12-04T15:51:13.464Z,93.99
2022-12-04T16:02:48.411Z,94.56
2022-12-04T16:05:43.156Z,94.32
2022-12-04T16:40:15.905Z,94.02
2022-12-04T16:47:26.781Z,93.82
2022-12-04T17:01:01.894Z,94.40
2022-12-04T17:12:52.957Z,94.40
2022-12-04T17:16:25.440Z,94.48
2022-12-04T17:19:31.971Z,94.56
2022-12-04T17:22:30.329Z,94.41
2022-12-04T17:29:17.221Z,93.52
2022-12-04T17:32:13.358Z,93.54
2022-12-04T17:35:59.128Z,93.85
2022-12-04T17:47:42.276Z,94.66
2022-12-04T17:59:14.377Z,94.71
2022-12-04T18:20:12.761Z,94.58
2022-12-04T18:38:16.382Z,94.72
2022-12-04T18:41:11.382Z,94.17
2022-12-04T18:44:05.691Z,93.86
2022-12-04T18:46:58.611Z,93.29
2022-12-04T18:50:56.801Z,93.19
2022-12-04T18:53:50.452Z,93.10
2022-12-04T18:56:45.780Z,93.14
2022-12-04T18:59:39.628Z,92.71
2022-12-04T19:02:34.109Z,92.72
2022-12-04T19:05:27.685Z,92.87
2022-12-04T19:08:22.797Z,92.81
2022-12-04T19:11:18.240Z,92.67
2022-12-04T19:14:19.266Z,92.28
2022-12-04T19:17:16.319Z,90.96
2022-12-04T19:20:10.890Z,90.24
2022-12-04T19:23:03.338Z,89.70
2022-12-04T19:26:03.717Z,89.66
2022-12-04T19:28:55.105Z,89.18
2022-12-04T19:31:47.554Z,89.39
2022-12-04T19:35:00.146Z,89.11
2022-12-04T19:37:56.109Z,89.37
2022-12-04T19:40:48.753Z,89.85
2022-12-04T19:43:46.841Z,90.42
2022-12-04T19:46:43.527Z,90.87
2022-12-04T19:50:34.188Z,91.13
2022-12-04T19:53:47.102Z,91.14
2022-12-04T19:56:46.189Z,91.21
2022-12-04T19:59:50.391Z,91.45
2022-12-04T20:02:43.472Z,91.63
2022-12-04T20:05:40.399Z,91.77
2022-12-04T20:08:35.909Z,91.89
2022-12-04T20:11:29.944Z,91.79
2022-12-04T20:14:31.036Z,91.68
2022-12-04T20:17:42.625Z,91.58
2022-12-04T20:24:04.109Z,91.70
2022-12-04T20:27:15.061Z,91.86
2022-12-04T20:30:09.601Z,91.92
2022-12-04T20:33:22.746Z,92.39
2022-12-04T20:36:16.396Z,92.75
2022-12-04T20:39:10.185Z,93.03
2022-12-04T20:42:07.474Z,93.08
2022-12-04T20:44:59.873Z,92.63
2022-12-04T20:47:55.938Z,92.71
2022-12-04T20:50:51.473Z,93.31
2022-12-04T20:55:11.082Z,93.65
2022-12-04T20:58:04.160Z,94.01
2022-12-04T21:00:59.311Z,94.37
2022-12-04T21:04:12.931Z,94.60
2022-12-04T21:07:24.990Z,94.81
2022-12-04T21:10:17.727Z,94.89
2022-12-04T21:17:09.671Z,94.94
2022-12-04T21:20:20.775Z,95.02
2022-12-04T21:23:13.854Z,95.18
2022-12-04T21:26:33.303Z,95.35
2022-12-04T21:29:27.334Z,95.67
2022-12-04T21:32:43.497Z,95.78
2022-12-04T21:35:39.850Z,96.12
2022-12-04T21:38:43.464Z,96.43
2022-12-04T21:41:56.041Z,96.54
2022-12-04T21:44:52.834Z,96.74
2022-12-04T21:47:47.244Z,96.53
2022-12-04T21:50:56.930Z,96.15
2022-12-04T21:53:54.921Z,95.41
2022-12-04T21:56:52.138Z,94.04
2022-12-04T21:59:52.018Z,92.74
2022-12-04T22:02:50.201Z,91.57
2022-12-04T22:05:53.510Z,91.41
2022-12-04T22:08:52.267Z,91.25
2022-12-04T22:11:47.196Z,90.54
2022-12-04T22:14:41.145Z,90.42
2022-12-04T22:17:34.132Z,89.93
2022-12-04T22:20:29.670Z,90.10
2022-12-04T22:23:28.321Z,89.74
2022-12-04T22:26:24.827Z,88.85
2022-12-04T22:29:48.487Z,88.40
2022-12-04T22:32:34.287Z,88.32
2022-12-04T22:35:28.906Z,88.25
2022-12-04T22:38:28.719Z,88.10
2022-12-04T22:41:24.990Z,88.32
2022-12-04T22:44:19.543Z,88.31
2022-12-04T22:47:12.231Z,88.44
2022-12-04T22:50:04.776Z,88.70
2022-12-04T22:53:05.032Z,88.55
2022-12-04T22:56:02.489Z,88.53
2022-12-04T22:58:55.356Z,88.86
2022-12-04T23:01:48.344Z,88.46
2022-12-04T23:04:41.225Z,87.81
2022-12-04T23:07:33.961Z,86.95
2022-12-04T23:10:27.126Z,86.23
2022-12-04T23:13:20.520Z,85.98
2022-12-04T23:16:18.388Z,85.62
2022-12-04T23:19:17.137Z,85.48
2022-12-04T23:22:26.026Z,85.54
2022-12-04T23:25:39.644Z,85.25
2022-12-04T23:28:38.189Z,85.08
2022-12-04T23:31:38.416Z,85.17
2022-12-04T23:34:43.081Z,85.20
2022-12-04T23:37:35.368Z,85.26
2022-12-04T23:40:27.791Z,85.06
2022-12-04T23:43:29.307Z,84.88
2022-12-04T23:46:24.867Z,85.01
2022-12-04T23:49:17.524Z,85.29
2022-12-04T23:52:09.962Z,85.55
2022-12-04T23:55:03.051Z,85.73
2022-12-04T23:57:56.418Z,85.98
